Time;durP1;ratioP1;P1;durP2;ratioP2;P2;SDS_P1;SDS_P2;PMS_P1;PMS_P2;Temp;Humidity;BMP_temperature;BMP_pressure;BME280_temperature;BME280_humidity;BME280_pressure;Samples;Min_cycle;Max_cycle;Signal;HPM_P1;HPM_P2
2022/11/05 00:10:58;;;;;;;7.32;2.90;;;7.40;99.90;;;;;;5053234;28;20485;-67
2022/11/05 00:19:07;;;;;;;7.55;2.38;;;7.30;99.90;;;;;;5068424;28;20049;-68
2022/11/05 00:27:07;;;;;;;6.55;2.22;;;7.30;99.90;;;;;;5069991;28;20052;-67
2022/11/05 00:29:33;;;;;;;7.07;2.35;;;7.30;99.90;;;;;;5051781;28;20049;-68
2022/11/05 00:31:59;;;;;;;9.27;2.47;;;7.20;99.90;;;;;;5069424;28;20095;-67
2022/11/05 00:34:24;;;;;;;6.53;2.30;;;7.30;99.90;;;;;;5068800;28;20119;-67
2022/11/05 00:36:50;;;;;;;6.57;2.17;;;7.30;99.90;;;;;;5069463;28;20037;-67
2022/11/05 00:39:15;;;;;;;7.88;3.35;;;7.30;99.90;;;;;;5068430;28;20090;-67
2022/11/05 00:41:41;;;;;;;6.88;2.20;;;7.40;99.90;;;;;;5069612;28;20091;-67
2022/11/05 00:49:28;;;;;;;6.55;2.20;;;7.40;99.90;;;;;;5068684;28;20048;-68
2022/11/05 00:49:36;;;;;;;7.15;2.88;;;7.30;99.90;;;;;;5052109;28;20044;-68
2022/11/05 00:54:46;;;;;;;6.55;1.85;;;7.20;99.90;;;;;;5069089;28;20127;-68
2022/11/05 00:57:11;;;;;;;4.10;1.70;;;7.20;99.90;;;;;;5035815;28;20139;-68
2022/11/05 00:59:37;;;;;;;5.68;1.70;;;7.10;99.90;;;;;;5051446;28;20037;-68
2022/11/05 01:02:02;;;;;;;7.18;1.98;;;7.10;99.90;;;;;;5052375;28;20049;-67
2022/11/05 01:04:28;;;;;;;4.45;1.88;;;7.10;99.90;;;;;;5068250;28;20121;-68
2022/11/05 01:06:54;;;;;;;5.72;1.85;;;7.10;99.90;;;;;;5052199;28;20037;-68
2022/11/05 01:09:19;;;;;;;4.57;1.70;;;7.00;99.90;;;;;;5051477;28;20056;-68
2022/11/05 01:11:45;;;;;;;6.45;1.83;;;7.00;99.90;;;;;;5058369;28;20041;-67
2022/11/05 01:14:14;;;;;;;5.65;1.70;;;7.00;99.90;;;;;;5049971;28;20519;-67
2022/11/05 01:16:41;;;;;;;5.47;2.00;;;7.00;99.90;;;;;;5047545;28;20362;-68
2022/11/05 01:19:08;;;;;;;4.30;1.98;;;7.00;99.90;;;;;;5051212;28;20105;-67
2022/11/05 01:21:34;;;;;;;5.60;2.30;;;7.00;99.90;;;;;;5051590;28;20060;-67
2022/11/05 01:24:01;;;;;;;7.13;2.03;;;7.00;99.90;;;;;;5067291;28;20481;-68
2022/11/05 01:26:26;;;;;;;9.82;5.05;;;7.00;99.90;;;;;;5067615;28;20044;-67
2022/11/05 01:28:54;;;;;;;8.88;4.00;;;7.00;99.90;;;;;;5068838;28;20401;-67
2022/11/05 01:31:20;;;;;;;8.07;3.47;;;7.00;99.90;;;;;;5069055;28;20041;-67
2022/11/05 01:33:45;;;;;;;11.57;4.22;;;6.90;99.90;;;;;;5051266;28;20044;-67
2022/11/05 01:36:11;;;;;;;8.32;4.53;;;6.90;99.90;;;;;;5067532;28;20033;-67
2022/11/05 01:38:37;;;;;;;9.63;4.43;;;6.90;99.90;;;;;;5051945;28;20069;-68
2022/11/05 01:41:03;;;;;;;9.85;5.00;;;6.90;99.90;;;;;;5068515;28;20041;-67
2022/11/05 01:43:47;;;;;;;11.25;5.13;;;6.90;99.90;;;;;;5051403;28;20507;-67
2022/11/05 01:46:14;;;;;;;10.23;5.20;;;6.90;99.90;;;;;;5051350;28;20485;-68
2022/11/05 01:48:40;;;;;;;9.60;4.82;;;6.90;99.90;;;;;;5068495;28;20059;-67
2022/11/05 01:51:10;;;;;;;9.45;4.70;;;7.00;99.90;;;;;;5068351;28;20036;-67
2022/11/05 01:53:40;;;;;;;8.50;5.00;;;6.90;99.90;;;;;;5050067;28;20505;-67
2022/11/05 01:56:13;;;;;;;7.88;4.63;;;6.90;99.90;;;;;;5050728;28;20041;-67
2022/11/05 01:58:45;;;;;;;8.57;4.10;;;6.90;99.90;;;;;;5055130;28;20358;-67
2022/11/05 02:01:11;;;;;;;11.63;4.82;;;6.90;99.90;;;;;;5072441;28;20129;-67
2022/11/05 02:03:37;;;;;;;7.15;3.60;;;6.80;99.90;;;;;;5072285;28;20143;-67
2022/11/05 02:06:08;;;;;;;9.15;3.30;;;6.80;99.90;;;;;;5071230;28;20048;-67
2022/11/05 02:09:26;;;;;;;9.25;3.35;;;6.80;99.90;;;;;;5072539;28;20045;-67
2022/11/05 02:11:51;;;;;;;6.30;2.83;;;6.80;99.90;;;;;;4998357;28;20065;-67
2022/11/05 02:14:18;;;;;;;5.97;3.00;;;6.80;99.90;;;;;;4998064;28;20064;-67
2022/11/05 02:17:05;;;;;;;7.45;2.70;;;6.80;99.90;;;;;;5006445;28;20064;-68
2022/11/05 02:19:49;;;;;;;5.40;2.33;;;6.80;99.90;;;;;;5055492;28;20056;-67
2022/11/05 02:22:51;;;;;;;5.55;2.42;;;6.80;99.90;;;;;;5055634;28;20045;-67
2022/11/05 02:25:38;;;;;;;4.75;2.00;;;6.90;99.90;;;;;;5055082;28;20045;-67
2022/11/05 02:28:32;;;;;;;6.45;2.05;;;6.80;99.90;;;;;;5071656;28;20099;-67
2022/11/05 02:31:24;;;;;;;5.80;2.28;;;6.90;99.90;;;;;;5051752;28;20136;-67
2022/11/05 02:33:55;;;;;;;6.90;2.83;;;7.00;99.90;;;;;;5028751;28;20053;-67
2022/11/05 02:36:53;;;;;;;6.50;2.10;;;7.00;99.90;;;;;;5045212;28;20139;-67
2022/11/05 02:39:35;;;;;;;7.15;1.80;;;7.00;99.90;;;;;;5055285;28;20037;-67
2022/11/05 02:42:07;;;;;;;;;;;7.00;99.90;;;;;;5055334;28;20133;-67
2022/11/05 02:44:58;;;;;;;5.47;1.98;;;7.00;99.90;;;;;;5054082;28;20004;-67
2022/11/05 02:47:44;;;;;;;8.30;2.10;;;7.00;99.90;;;;;;5037929;28;20403;-67
2022/11/05 02:50:12;;;;;;;6.25;2.00;;;7.00;99.90;;;;;;5070249;28;20094;-67
2022/11/05 02:52:50;;;;;;;5.45;1.90;;;7.00;99.90;;;;;;5070808;28;20393;-67
2022/11/05 02:55:41;;;;;;;7.45;2.35;;;6.90;99.90;;;;;;5071479;28;20033;-67
2022/11/05 02:58:06;;;;;;;5.20;2.08;;;7.00;99.90;;;;;;5053716;28;20041;-67
2022/11/05 03:00:47;;;;;;;10.23;2.30;;;7.00;99.90;;;;;;5071319;28;20083;-67
2022/11/05 03:03:20;;;;;;;7.45;2.13;;;7.00;99.90;;;;;;5070594;28;20052;-67
2022/11/05 03:06:17;;;;;;;4.82;2.10;;;7.00;99.90;;;;;;5053288;28;20053;-68
2022/11/05 03:09:08;;;;;;;8.23;2.17;;;6.90;99.90;;;;;;5034809;28;20037;-68
2022/11/05 03:12:12;;;;;;;6.28;1.83;;;7.00;99.90;;;;;;5051107;28;20046;-67
2022/11/05 03:14:53;;;;;;;4.30;1.65;;;7.00;99.90;;;;;;5046898;28;20045;-67
2022/11/05 03:17:44;;;;;;;4.18;1.70;;;7.00;99.90;;;;;;5053722;28;20040;-67
2022/11/05 03:20:39;;;;;;;8.07;2.17;;;7.00;99.90;;;;;;5053537;28;20472;-67
2022/11/05 03:23:20;;;;;;;7.65;2.85;;;7.00;99.90;;;;;;5054574;28;20472;-67
2022/11/05 03:25:54;;;;;;;5.43;2.20;;;7.00;99.90;;;;;;5070054;28;20041;-67
2022/11/05 03:28:24;;;;;;;6.95;2.05;;;7.10;99.90;;;;;;5054064;28;20041;-67
2022/11/05 03:30:52;;;;;;;6.82;2.30;;;7.10;99.90;;;;;;5054106;28;20052;-67
2022/11/05 03:33:23;;;;;;;5.53;2.00;;;7.10;99.90;;;;;;5070091;28;20079;-67
2022/11/05 03:35:58;;;;;;;7.65;2.78;;;7.10;99.90;;;;;;5036649;28;20439;-67
2022/11/05 03:38:29;;;;;;;6.53;2.05;;;7.10;99.90;;;;;;5070472;28;20037;-67
2022/11/05 03:40:58;;;;;;;9.48;2.50;;;7.10;99.90;;;;;;5070564;28;20095;-67
2022/11/05 03:43:29;;;;;;;6.47;2.30;;;7.10;99.90;;;;;;5053159;28;20091;-67
2022/11/05 03:46:03;;;;;;;8.45;2.67;;;7.10;99.90;;;;;;5052948;28;20041;-67
2022/11/05 03:48:30;;;;;;;6.75;2.40;;;7.10;99.90;;;;;;5053491;28;20051;-67
2022/11/05 03:51:06;;;;;;;7.85;2.30;;;7.10;99.90;;;;;;5070303;28;20493;-68
2022/11/05 03:53:37;;;;;;;5.63;2.20;;;7.10;99.90;;;;;;5052843;28;20095;-67
2022/11/05 03:56:17;;;;;;;8.15;2.97;;;7.20;99.90;;;;;;5069910;28;20401;-68
2022/11/05 03:58:44;;;;;;;11.40;2.78;;;7.10;99.90;;;;;;5070224;28;20511;-68
2022/11/05 04:01:11;;;;;;;5.47;2.33;;;7.10;99.90;;;;;;5070187;28;20055;-67
2022/11/05 04:03:37;;;;;;;5.82;2.55;;;7.00;99.90;;;;;;5052553;28;20049;-67
2022/11/05 04:14:17;;;;;;;6.13;2.38;;;7.10;99.90;;;;;;5052595;28;20041;-67
2022/11/05 04:24:55;;;;;;;5.78;2.42;;;6.90;99.90;;;;;;5067377;28;20071;-68
2022/11/05 04:27:21;;;;;;;5.82;2.40;;;6.80;99.90;;;;;;5051605;28;20127;-67
2022/11/05 04:32:31;;;;;;;6.53;2.45;;;6.70;99.90;;;;;;5033199;28;20442;-67
2022/11/05 04:34:56;;;;;;;6.40;2.30;;;6.60;99.90;;;;;;5051918;28;20113;-67
2022/11/05 04:37:22;;;;;;;6.40;2.55;;;6.60;99.90;;;;;;5051537;28;20501;-68
2022/11/05 04:39:47;;;;;;;9.20;2.78;;;6.60;99.90;;;;;;5052630;28;20124;-68
2022/11/05 04:42:13;;;;;;;5.38;2.22;;;6.60;99.90;;;;;;5053489;28;20040;-67
2022/11/05 04:44:38;;;;;;;6.55;2.38;;;6.60;99.90;;;;;;5052572;28;20043;-67
2022/11/05 04:47:04;;;;;;;9.23;2.97;;;6.70;99.90;;;;;;5035991;28;20037;-67
2022/11/05 04:49:29;;;;;;;4.65;2.50;;;6.70;99.90;;;;;;5052694;28;20041;-67
2022/11/05 04:51:55;;;;;;;9.73;3.05;;;6.70;99.90;;;;;;5035948;28;20493;-68
2022/11/05 04:54:20;;;;;;;7.97;2.90;;;6.70;99.90;;;;;;5035875;28;20043;-67
2022/11/05 04:56:46;;;;;;;6.68;2.80;;;6.70;99.90;;;;;;5036016;28;20456;-67
2022/11/05 04:59:11;;;;;;;6.28;2.67;;;6.70;99.90;;;;;;5068984;28;20098;-67
2022/11/05 05:01:37;;;;;;;9.95;3.35;;;6.70;99.90;;;;;;5052290;28;20049;-67
2022/11/05 05:04:03;;;;;;;6.13;2.80;;;6.70;99.90;;;;;;5052269;28;20053;-67
2022/11/05 05:06:28;;;;;;;6.95;2.90;;;6.70;99.90;;;;;;5052403;28;20084;-67
2022/11/05 05:08:54;;;;;;;7.32;2.70;;;6.60;99.90;;;;;;5052140;28;20041;-67
2022/11/05 05:11:20;;;;;;;6.20;2.70;;;6.60;99.90;;;;;;5052155;28;20051;-67
2022/11/05 05:13:47;;;;;;;7.72;2.95;;;6.60;99.90;;;;;;5052346;28;20397;-67
2022/11/05 05:16:22;;;;;;;7.13;3.10;;;6.50;99.90;;;;;;5052968;28;20090;-67
2022/11/05 05:18:48;;;;;;;6.63;3.08;;;6.60;99.90;;;;;;5035331;28;20037;-67
2022/11/05 05:24:00;;;;;;;7.40;2.75;;;6.40;99.90;;;;;;5068747;28;20500;-68
2022/11/05 05:26:25;;;;;;;5.18;2.40;;;6.30;99.90;;;;;;5051909;28;20087;-68
2022/11/05 05:28:52;;;;;;;5.65;2.72;;;6.30;99.90;;;;;;5051826;28;20041;-67
2022/11/05 05:31:18;;;;;;;5.97;2.78;;;6.40;99.90;;;;;;5051118;28;20048;-67
2022/11/05 05:33:44;;;;;;;6.25;2.97;;;6.40;99.90;;;;;;5051728;28;20489;-68
2022/11/05 05:36:09;;;;;;;7.50;3.33;;;6.40;99.90;;;;;;5068941;28;20032;-68
2022/11/05 05:38:35;;;;;;;6.53;3.13;;;6.50;99.90;;;;;;5052074;28;20041;-67
2022/11/05 05:41:01;;;;;;;8.73;3.50;;;6.50;99.90;;;;;;5052117;28;20040;-67
2022/11/05 05:43:31;;;;;;;8.65;3.30;;;6.50;99.90;;;;;;5051820;28;20092;-67
2022/11/05 05:46:03;;;;;;;7.70;3.67;;;6.50;99.90;;;;;;5067876;28;20397;-67
2022/11/05 05:48:29;;;;;;;9.10;3.45;;;6.50;99.90;;;;;;5034614;28;20048;-67
2022/11/05 05:51:00;;;;;;;8.70;3.78;;;6.70;99.90;;;;;;5051811;28;20493;-67
2022/11/05 05:53:26;;;;;;;8.57;3.67;;;6.70;99.90;;;;;;5066705;28;20037;-67
2022/11/05 05:55:53;;;;;;;9.55;3.70;;;6.70;99.90;;;;;;5050304;28;20040;-67
2022/11/05 05:58:19;;;;;;;9.63;4.38;;;6.60;99.90;;;;;;5034941;28;20029;-67
2022/11/05 06:00:44;;;;;;;8.48;4.00;;;6.60;99.90;;;;;;5051851;28;20048;-67
2022/11/05 06:03:10;;;;;;;8.85;4.03;;;6.70;99.90;;;;;;5034977;28;20053;-67
2022/11/05 06:05:35;;;;;;;9.38;4.35;;;6.60;99.90;;;;;;5052176;28;20080;-67
2022/11/05 06:08:01;;;;;;;7.05;3.70;;;6.60;99.90;;;;;;5051576;28;20048;-67
2022/11/05 06:10:27;;;;;;;8.20;3.85;;;6.60;99.90;;;;;;5051550;28;20131;-68
2022/11/05 06:12:52;;;;;;;7.50;3.47;;;6.60;99.90;;;;;;5051546;28;20037;-67
2022/11/05 06:15:18;;;;;;;7.97;3.78;;;6.50;99.90;;;;;;5051440;28;20379;-67
2022/11/05 06:17:44;;;;;;;6.72;3.65;;;6.60;99.90;;;;;;5035174;28;20055;-67
2022/11/05 06:20:11;;;;;;;8.70;3.70;;;6.60;99.90;;;;;;5051644;28;20080;-67
2022/11/05 06:22:37;;;;;;;8.30;3.78;;;6.70;99.90;;;;;;5034939;28;20051;-67
2022/11/05 06:25:03;;;;;;;9.65;4.45;;;6.70;99.90;;;;;;5064768;28;20037;-67
2022/11/05 06:27:29;;;;;;;8.98;4.00;;;6.70;99.90;;;;;;5031471;28;20389;-67
2022/11/05 06:29:55;;;;;;;6.25;3.50;;;6.70;99.90;;;;;;5031356;28;20037;-67
2022/11/05 06:32:20;;;;;;;7.25;3.70;;;6.80;99.90;;;;;;5031476;28;20095;-67
2022/11/05 06:34:46;;;;;;;8.20;3.45;;;6.70;99.90;;;;;;5031445;28;20398;-68
2022/11/05 06:37:11;;;;;;;9.07;3.55;;;6.70;99.90;;;;;;5031404;28;20444;-67
2022/11/05 06:39:37;;;;;;;9.00;3.65;;;6.70;99.90;;;;;;5032726;28;20037;-67
2022/11/05 06:42:03;;;;;;;8.80;4.10;;;6.80;99.90;;;;;;5014905;28;20042;-67
2022/11/05 06:44:28;;;;;;;9.45;3.85;;;6.80;99.90;;;;;;5034969;28;20045;-68
2022/11/05 06:46:54;;;;;;;8.00;3.50;;;6.80;99.90;;;;;;5051488;28;20050;-67
2022/11/05 06:49:23;;;;;;;7.30;3.42;;;6.80;99.90;;;;;;5051436;28;20065;-67
2022/11/05 06:51:49;;;;;;;7.50;3.05;;;6.70;99.90;;;;;;5048149;28;20390;-67
2022/11/05 06:54:15;;;;;;;14.43;4.13;;;6.70;99.90;;;;;;5054847;28;20037;-67
2022/11/05 06:56:40;;;;;;;6.65;3.40;;;6.70;99.90;;;;;;5054032;28;20039;-67
2022/11/05 06:59:07;;;;;;;8.05;3.45;;;6.70;99.90;;;;;;5054004;28;20086;-68
2022/11/05 07:01:33;;;;;;;6.68;3.30;;;6.70;99.90;;;;;;5067913;28;20454;-67
2022/11/05 07:03:59;;;;;;;7.25;3.25;;;6.80;99.90;;;;;;5037679;28;20059;-67
2022/11/05 07:06:25;;;;;;;7.28;3.03;;;6.80;99.90;;;;;;5054521;28;20123;-68
2022/11/05 07:08:51;;;;;;;6.70;3.25;;;6.80;99.90;;;;;;5037938;28;20047;-67
2022/11/05 07:11:17;;;;;;;7.75;3.45;;;6.80;99.90;;;;;;5071051;28;20041;-68
2022/11/05 07:13:42;;;;;;;8.02;3.33;;;6.80;99.90;;;;;;5053234;28;20072;-67
2022/11/05 07:16:08;;;;;;;7.97;3.47;;;6.80;99.90;;;;;;5056877;28;20035;-67
2022/11/05 07:18:33;;;;;;;7.32;3.67;;;6.80;99.90;;;;;;5049345;28;20041;-67
2022/11/05 07:20:59;;;;;;;8.35;3.60;;;6.80;99.90;;;;;;5029792;28;20049;-67
2022/11/05 07:23:25;;;;;;;8.30;3.50;;;6.80;99.90;;;;;;5040179;28;20047;-68
2022/11/05 07:25:51;;;;;;;9.23;3.70;;;6.80;99.90;;;;;;5046340;28;20073;-67
2022/11/05 07:28:16;;;;;;;7.82;3.10;;;6.90;99.90;;;;;;5066265;28;20555;-67
2022/11/05 07:30:42;;;;;;;7.05;3.33;;;6.90;99.90;;;;;;5069052;28;20451;-67
2022/11/05 07:33:08;;;;;;;7.90;3.60;;;6.90;99.90;;;;;;5048893;28;20033;-67
2022/11/05 07:35:33;;;;;;;8.52;3.40;;;6.90;99.90;;;;;;5053724;28;20036;-67
2022/11/05 07:37:59;;;;;;;10.00;3.35;;;7.00;99.90;;;;;;5052313;28;20037;-67
2022/11/05 07:40:27;;;;;;;7.72;3.20;;;7.00;99.90;;;;;;5053417;28;20124;-67
2022/11/05 07:42:55;;;;;;;6.90;2.67;;;7.10;99.90;;;;;;5035516;28;20035;-68
2022/11/05 07:45:21;;;;;;;9.38;3.20;;;7.10;99.90;;;;;;5054903;28;20033;-68
2022/11/05 07:47:52;;;;;;;6.97;3.58;;;7.10;99.90;;;;;;5051559;28;20174;-68
2022/11/05 07:50:19;;;;;;;7.03;3.47;;;7.20;99.90;;;;;;5052831;28;20515;-68
2022/11/05 07:52:46;;;;;;;9.20;3.20;;;7.20;99.90;;;;;;5036334;28;20492;-67
2022/11/05 07:55:13;;;;;;;7.47;3.47;;;7.20;99.90;;;;;;5035693;28;20033;-68
2022/11/05 07:57:43;;;;;;;6.18;3.13;;;7.20;99.90;;;;;;5052924;28;20069;-68
2022/11/05 08:00:12;;;;;;;10.80;3.55;;;7.30;99.90;;;;;;5052110;28;20037;-68
2022/11/05 08:02:37;;;;;;;7.50;3.30;;;7.40;99.90;;;;;;5051244;28;20060;-68
2022/11/05 08:05:03;;;;;;;8.32;3.85;;;7.30;99.90;;;;;;5070000;28;20127;-68
2022/11/05 08:07:29;;;;;;;6.30;3.08;;;7.40;99.90;;;;;;5052105;28;20087;-67
2022/11/05 08:09:54;;;;;;;7.93;3.47;;;7.40;99.90;;;;;;5068476;28;20060;-67
2022/11/05 08:12:20;;;;;;;7.22;3.33;;;7.50;99.90;;;;;;5069874;28;20094;-68
2022/11/05 08:14:45;;;;;;;7.07;3.03;;;7.50;99.90;;;;;;5051800;28;20051;-68
2022/11/05 08:17:11;;;;;;;7.97;3.42;;;7.50;99.90;;;;;;5066622;28;20140;-68
2022/11/05 08:19:36;;;;;;;7.97;4.10;;;7.60;99.90;;;;;;5040742;28;20560;-67
2022/11/05 08:22:02;;;;;;;7.75;3.60;;;7.60;99.90;;;;;;5051704;28;20044;-67
2022/11/05 08:24:28;;;;;;;7.50;3.58;;;7.70;99.90;;;;;;5035295;28;20049;-67
2022/11/05 08:26:53;;;;;;;7.45;3.67;;;7.80;99.90;;;;;;5052124;28;20041;-67
2022/11/05 08:29:19;;;;;;;10.35;3.38;;;7.80;99.90;;;;;;5069456;28;20032;-68
2022/11/05 08:31:44;;;;;;;9.75;4.15;;;7.90;99.90;;;;;;5068288;28;20044;-68
2022/11/05 08:34:10;;;;;;;9.27;3.42;;;7.90;99.90;;;;;;5034919;28;20547;-67
2022/11/05 08:36:35;;;;;;;10.73;3.70;;;7.90;99.90;;;;;;5050412;28;20513;-67
2022/11/05 08:39:01;;;;;;;7.15;3.50;;;8.10;99.90;;;;;;5033056;28;20090;-68
2022/11/05 08:41:27;;;;;;;8.05;3.78;;;8.10;99.90;;;;;;5050064;28;20040;-67
2022/11/05 08:43:55;;;;;;;7.00;3.72;;;8.20;99.90;;;;;;5052516;28;20045;-77
2022/11/05 08:46:21;;;;;;;6.85;3.83;;;8.30;99.90;;;;;;5050638;28;20049;-68
2022/11/05 08:48:47;;;;;;;8.23;3.88;;;8.30;99.90;;;;;;5052824;28;20037;-67
2022/11/05 08:51:12;;;;;;;8.25;3.85;;;8.40;99.90;;;;;;5067506;28;20036;-68
2022/11/05 08:53:38;;;;;;;7.57;3.25;;;8.40;99.90;;;;;;5068597;28;20087;-68
2022/11/05 08:56:04;;;;;;;8.05;3.60;;;8.40;99.90;;;;;;5052706;28;20041;-67
2022/11/05 08:58:29;;;;;;;7.32;3.53;;;8.50;99.90;;;;;;5050538;28;20037;-68
2022/11/05 09:00:55;;;;;;;8.02;3.63;;;8.60;99.90;;;;;;5068601;28;20048;-68
2022/11/05 09:03:21;;;;;;;7.53;3.30;;;8.70;99.90;;;;;;5051592;28;20049;-67
2022/11/05 09:05:46;;;;;;;7.90;3.35;;;8.80;99.90;;;;;;5067628;28;20554;-67
2022/11/05 09:08:14;;;;;;;8.18;3.67;;;8.90;99.90;;;;;;5052097;28;20098;-67
2022/11/05 09:10:42;;;;;;;10.10;4.50;;;9.00;99.90;;;;;;5043166;28;20386;-68
2022/11/05 09:13:08;;;;;;;7.57;3.80;;;9.00;99.90;;;;;;5042066;28;20037;-67
2022/11/05 09:15:37;;;;;;;9.63;3.90;;;9.10;99.90;;;;;;5050467;28;20130;-68
2022/11/05 09:18:04;;;;;;;7.38;3.40;;;9.10;99.90;;;;;;5052267;28;20098;-67
2022/11/05 09:20:31;;;;;;;8.77;4.20;;;9.20;99.90;;;;;;5066798;28;20117;-68
2022/11/05 09:22:56;;;;;;;8.55;3.42;;;9.30;99.90;;;;;;5050760;28;20120;-68
2022/11/05 09:25:22;;;;;;;8.73;3.70;;;9.40;99.90;;;;;;5051399;28;20112;-68
2022/11/05 09:27:48;;;;;;;8.88;3.25;;;9.40;99.90;;;;;;5067650;28;20562;-68
2022/11/05 09:30:14;;;;;;;8.27;3.60;;;9.50;99.90;;;;;;5051612;28;20072;-68
2022/11/05 09:32:40;;;;;;;8.32;4.07;;;9.60;99.90;;;;;;5033669;28;20460;-68
2022/11/05 09:35:07;;;;;;;7.95;3.50;;;9.80;99.90;;;;;;5031629;28;20041;-68
2022/11/05 09:37:33;;;;;;;7.40;3.58;;;9.90;99.90;;;;;;5042108;28;20037;-68
2022/11/05 09:39:58;;;;;;;6.68;2.85;;;10.00;99.90;;;;;;5068581;28;20083;-68
2022/11/05 09:42:33;;;;;;;8.18;2.50;;;10.00;99.90;;;;;;5049000;28;20401;-68
2022/11/05 09:45:08;;;;;;;8.20;3.00;;;10.20;99.90;;;;;;5051666;28;20045;-68
2022/11/05 09:47:41;;;;;;;11.02;3.63;;;10.30;99.90;;;;;;5051285;28;20037;-68
2022/11/05 09:50:31;;;;;;;7.82;2.97;;;10.40;99.90;;;;;;5062888;28;20128;-68
2022/11/05 09:52:57;;;;;;;7.30;3.35;;;10.50;99.90;;;;;;5031220;28;20069;-68
2022/11/05 09:55:27;;;;;;;5.90;2.72;;;10.70;99.90;;;;;;5068616;28;20068;-68
2022/11/05 09:57:57;;;;;;;9.27;3.10;;;10.70;99.90;;;;;;5049722;28;20920;-68
2022/11/05 10:00:23;;;;;;;6.47;3.00;;;10.80;99.90;;;;;;5051105;28;20033;-68
2022/11/05 10:03:00;;;;;;;8.35;2.97;;;11.00;99.90;;;;;;5034844;28;20057;-68
2022/11/05 10:05:26;;;;;;;7.18;2.70;;;11.00;99.90;;;;;;5049366;28;20033;-68
2022/11/05 10:08:04;;;;;;;6.10;2.35;;;11.00;99.90;;;;;;5033673;28;20547;-68
2022/11/05 10:10:41;;;;;;;6.45;2.90;;;11.00;99.90;;;;;;5044118;28;20486;-68
2022/11/05 10:13:18;;;;;;;5.70;2.85;;;11.10;99.90;;;;;;5045447;28;20033;-68
2022/11/05 10:16:14;;;;;;;6.47;2.67;;;11.20;99.90;;;;;;5046848;28;20041;-68
2022/11/05 10:18:43;;;;;;;9.07;2.65;;;11.20;99.90;;;;;;5053493;28;20044;-68
2022/11/05 10:21:16;;;;;;;5.03;2.55;;;11.20;99.90;;;;;;5067949;28;20072;-68
2022/11/05 10:23:45;;;;;;;7.28;2.60;;;11.30;99.90;;;;;;5033893;28;20432;-68
2022/11/05 10:26:16;;;;;;;7.03;2.63;;;11.40;99.90;;;;;;5053438;28;20532;-68
2022/11/05 10:28:42;;;;;;;9.18;3.00;;;11.40;99.90;;;;;;5053689;28;20125;-68
2022/11/05 10:31:11;;;;;;;7.15;2.60;;;11.40;99.90;;;;;;5071926;28;20119;-68
2022/11/05 10:33:59;;;;;;;6.00;2.60;;;11.60;99.90;;;;;;5069735;28;20396;-68
2022/11/05 10:36:31;;;;;;;7.03;2.92;;;11.60;99.90;;;;;;5048690;28;20041;-68
2022/11/05 10:39:16;;;;;;;6.00;2.17;;;11.70;99.90;;;;;;5053443;28;20043;-68
2022/11/05 10:42:09;;;;;;;6.70;2.22;;;11.80;99.90;;;;;;5038274;28;20484;-68
2022/11/05 10:45:02;;;;;;;4.88;1.92;;;11.80;99.90;;;;;;5033428;28;20396;-68
2022/11/05 10:47:50;;;;;;;7.80;1.67;;;11.90;99.90;;;;;;5054499;28;20041;-68
2022/11/05 10:50:23;;;;;;;6.57;2.10;;;11.90;99.90;;;;;;5054244;28;20048;-68
2022/11/05 10:52:57;;;;;;;4.78;2.10;;;11.90;99.90;;;;;;5070279;28;20112;-68
2022/11/05 10:55:34;;;;;;;7.57;2.42;;;11.90;99.90;;;;;;5071523;28;20107;-68
2022/11/05 10:58:09;;;;;;;5.75;1.95;;;11.80;99.90;;;;;;5050681;28;20040;-68
2022/11/05 11:00:35;;;;;;;6.90;2.40;;;11.90;99.90;;;;;;5070218;28;20033;-68
2022/11/05 11:03:04;;;;;;;5.50;1.75;;;11.90;99.90;;;;;;5041434;28;20525;-68
2022/11/05 11:05:37;;;;;;;6.30;1.73;;;12.00;99.90;;;;;;5033951;28;20559;-68
2022/11/05 11:08:23;;;;;;;6.90;1.80;;;12.00;99.90;;;;;;5068888;28;20037;-68
2022/11/05 11:10:56;;;;;;;5.60;1.75;;;12.00;99.90;;;;;;5050603;28;20041;-68
2022/11/05 11:13:27;;;;;;;5.75;1.63;;;12.00;99.90;;;;;;5053047;28;20044;-68
2022/11/05 11:15:54;;;;;;;6.45;1.40;;;12.00;99.90;;;;;;5053317;28;20040;-73
2022/11/05 11:18:28;;;;;;;6.15;1.50;;;12.10;99.90;;;;;;5069745;28;20485;-73
2022/11/05 11:21:14;;;;;;;4.13;1.48;;;12.00;99.90;;;;;;5044085;28;20550;-69
2022/11/05 11:23:42;;;;;;;7.65;1.67;;;12.00;99.90;;;;;;5044139;28;20511;-70
2022/11/05 11:26:09;;;;;;;7.18;1.60;;;12.10;99.90;;;;;;5051448;28;20044;-69
2022/11/05 11:29:06;;;;;;;4.70;1.30;;;12.20;99.90;;;;;;5035418;28;20481;-69
2022/11/05 11:31:35;;;;;;;5.47;1.70;;;12.30;99.90;;;;;;5051809;28;20067;-69
2022/11/05 11:34:04;;;;;;;5.03;1.38;;;12.20;99.90;;;;;;5053540;28;20079;-69
2022/11/05 11:36:45;;;;;;;5.30;1.30;;;12.20;99.90;;;;;;5051315;28;20029;-70
2022/11/05 11:39:27;;;;;;;6.30;1.48;;;12.20;99.90;;;;;;5037366;28;20049;-70
2022/11/05 11:41:57;;;;;;;4.18;1.52;;;12.20;99.90;;;;;;5052875;28;20041;-72
2022/11/05 11:44:28;;;;;;;6.63;1.63;;;12.10;99.90;;;;;;5052194;28;20041;-69
2022/11/05 11:46:57;;;;;;;4.55;1.25;;;12.10;99.90;;;;;;5069692;28;20108;-70
2022/11/05 11:49:31;;;;;;;6.72;1.52;;;12.20;99.90;;;;;;5069852;28;20116;-69
2022/11/05 11:52:08;;;;;;;9.25;1.48;;;12.20;99.90;;;;;;5051731;28;20048;-69
2022/11/05 11:54:34;;;;;;;5.97;1.60;;;12.30;99.90;;;;;;5035639;28;20393;-69
2022/11/05 11:56:59;;;;;;;5.05;1.73;;;12.30;99.90;;;;;;5070472;28;20142;-69
2022/11/05 11:59:27;;;;;;;3.38;1.60;;;12.30;99.90;;;;;;5052074;28;20504;-69
2022/11/05 12:02:17;;;;;;;5.20;1.70;;;12.20;99.90;;;;;;5052352;28;20049;-69
2022/11/05 12:04:52;;;;;;;4.63;1.20;;;12.30;99.90;;;;;;5020661;28;20045;-69
2022/11/05 12:07:18;;;;;;;3.08;1.10;;;12.20;99.90;;;;;;5068122;28;20143;-70
2022/11/05 12:09:59;;;;;;;3.33;1.20;;;12.10;99.90;;;;;;5069738;28;20536;-70
2022/11/05 12:13:01;;;;;;;3.97;1.10;;;12.10;99.90;;;;;;5052088;28;20045;-69
2022/11/05 12:15:49;;;;;;;2.40;0.93;;;12.10;99.90;;;;;;5053618;28;20052;-70
2022/11/05 12:18:38;;;;;;;4.30;1.10;;;12.20;99.90;;;;;;5052427;28;20120;-69
2022/11/05 12:21:13;;;;;;;3.45;1.10;;;12.10;99.90;;;;;;5068087;28;20049;-69
2022/11/05 12:23:44;;;;;;;4.05;1.17;;;12.10;99.90;;;;;;5051032;28;20503;-69
2022/11/05 12:26:20;;;;;;;6.43;1.42;;;12.10;99.90;;;;;;5068403;28;20492;-69
2022/11/05 12:28:49;;;;;;;5.10;1.30;;;12.00;99.90;;;;;;5069396;28;20098;-69
2022/11/05 12:31:31;;;;;;;3.75;1.35;;;12.00;99.90;;;;;;5052404;28;20041;-72
2022/11/05 12:34:12;;;;;;;4.90;1.38;;;12.00;99.90;;;;;;5069774;28;20041;-69
2022/11/05 12:36:53;;;;;;;3.05;1.20;;;12.00;99.90;;;;;;5052679;28;20068;-70
2022/11/05 12:39:28;;;;;;;3.88;1.20;;;12.00;99.90;;;;;;5057926;28;20041;-69
2022/11/05 12:42:29;;;;;;;4.40;1.30;;;11.90;99.90;;;;;;5052395;28;20087;-69
2022/11/05 12:45:19;;;;;;;4.22;1.42;;;11.90;99.90;;;;;;5052683;28;20049;-69
2022/11/05 12:48:11;;;;;;;3.13;1.30;;;11.90;99.90;;;;;;5052405;28;20125;-69
2022/11/05 12:50:45;;;;;;;;;;;12.00;99.90;;;;;;5052679;28;20058;-70
2022/11/05 12:53:17;;;;;;;4.75;1.35;;;11.90;99.90;;;;;;5052069;28;20003;-69
2022/11/05 12:55:45;;;;;;;5.53;1.50;;;11.80;99.90;;;;;;5051930;28;20076;-70
2022/11/05 12:58:19;;;;;;;4.60;1.67;;;11.80;99.90;;;;;;5045539;28;20045;-69
2022/11/05 13:00:51;;;;;;;4.72;1.85;;;11.70;99.90;;;;;;5032476;28;20041;-70
2022/11/05 13:03:47;;;;;;;5.20;1.60;;;11.70;99.90;;;;;;5051874;28;20055;-69
2022/11/05 13:06:16;;;;;;;6.35;1.52;;;11.60;99.90;;;;;;5016186;28;20037;-69
2022/11/05 13:09:06;;;;;;;5.38;1.83;;;11.60;99.90;;;;;;5046814;28;20443;-69
2022/11/05 13:11:38;;;;;;;5.18;1.67;;;11.60;99.90;;;;;;5067735;28;20045;-69
2022/11/05 13:14:27;;;;;;;5.50;1.58;;;11.60;99.90;;;;;;5050922;28;20523;-70
2022/11/05 13:16:58;;;;;;;7.20;1.92;;;11.60;99.90;;;;;;5032364;28;20064;-70
2022/11/05 13:19:27;;;;;;;5.15;1.58;;;11.60;99.90;;;;;;5044666;28;20033;-70
2022/11/05 13:21:58;;;;;;;6.38;2.20;;;11.60;99.90;;;;;;5051355;28;20041;-70
2022/11/05 13:24:32;;;;;;;7.32;2.25;;;11.70;99.90;;;;;;5067218;28;20484;-70
2022/11/05 13:27:09;;;;;;;8.00;2.05;;;11.60;99.90;;;;;;5031953;28;20045;-77
2022/11/05 13:29:47;;;;;;;5.97;1.90;;;11.70;99.90;;;;;;5044752;28;20075;-71
2022/11/05 13:32:37;;;;;;;5.07;1.95;;;11.70;99.90;;;;;;5050968;28;20075;-70
2022/11/05 13:35:06;;;;;;;7.75;2.60;;;11.70;99.90;;;;;;5050263;28;20033;-70
2022/11/05 13:40:40;;;;;;;8.25;2.55;;;11.70;99.90;;;;;;5050589;28;20044;-70
2022/11/05 13:43:36;;;;;;;6.18;2.50;;;11.70;99.90;;;;;;5068430;28;20485;-70
2022/11/05 13:46:11;;;;;;;9.32;2.90;;;11.70;99.90;;;;;;5034346;28;20041;-70
2022/11/05 13:49:06;;;;;;;9.35;2.90;;;11.70;99.90;;;;;;5032909;28;20079;-70
2022/11/05 13:51:46;;;;;;;8.05;2.70;;;11.70;99.90;;;;;;5042191;28;20489;-70
2022/11/05 13:54:31;;;;;;;8.32;3.00;;;11.70;99.90;;;;;;5054487;28;20033;-70
2022/11/05 13:57:22;;;;;;;6.63;2.70;;;11.70;99.90;;;;;;5053218;28;20033;-70
2022/11/05 14:00:15;;;;;;;10.43;3.00;;;11.70;99.90;;;;;;5053818;28;20064;-70
2022/11/05 14:03:02;;;;;;;6.68;2.72;;;11.80;99.90;;;;;;5055825;28;20061;-70
2022/11/05 14:05:40;;;;;;;8.90;3.15;;;11.70;99.90;;;;;;5067349;28;20045;-70
2022/11/05 14:08:18;;;;;;;7.35;2.80;;;11.70;99.90;;;;;;5053359;28;20041;-70